createdAt,value
2023-09-15T00:00:27.389Z,12.27
2023-09-15T00:03:29.917Z,12.25
2023-09-15T00:06:31.929Z,13.10
2023-09-15T00:09:33.909Z,12.93
2023-09-15T00:12:39.093Z,13.23
2023-09-15T00:15:42.135Z,13.52
2023-09-15T00:18:44.117Z,13.38
2023-09-15T00:21:49.053Z,14.23
2023-09-15T00:24:51.292Z,13.60
2023-09-15T00:27:55.455Z,13.73
2023-09-15T00:31:00.589Z,13.57
2023-09-15T00:34:02.772Z,14.07
2023-09-15T00:37:05.080Z,12.65
2023-09-15T00:40:09.610Z,13.50
2023-09-15T00:43:11.705Z,16.25
2023-09-15T00:46:14.376Z,13.20
2023-09-15T00:49:16.487Z,13.88
2023-09-15T00:52:18.852Z,13.48
2023-09-15T00:55:23.143Z,17.23
2023-09-15T00:58:25.269Z,12.32
2023-09-15T01:01:28.648Z,12.55
2023-09-15T01:04:32.410Z,11.90
2023-09-15T01:07:34.875Z,12.00
2023-09-15T01:10:39.165Z,12.32
2023-09-15T01:13:41.157Z,11.98
2023-09-15T01:17:20.105Z,13.20
2023-09-15T01:20:34.091Z,13.00
2023-09-15T01:24:15.680Z,13.85
2023-09-15T01:27:36.012Z,12.98
2023-09-15T01:30:38.802Z,12.20
2023-09-15T01:33:40.848Z,12.20
2023-09-15T01:36:42.872Z,13.00
2023-09-15T01:39:45.137Z,13.98
2023-09-15T01:42:49.794Z,12.63
2023-09-15T01:45:53.018Z,12.10
2023-09-15T01:48:57.745Z,13.15
2023-09-15T01:52:00.651Z,13.38
2023-09-15T01:55:04.327Z,12.15
2023-09-15T01:58:06.504Z,13.25
2023-09-15T02:01:08.568Z,12.05
2023-09-15T02:04:11.222Z,14.90
2023-09-15T02:07:13.832Z,13.52
2023-09-15T02:10:16.060Z,14.52
2023-09-15T02:13:19.050Z,13.85
2023-09-15T02:16:21.239Z,12.88
2023-09-15T02:19:23.473Z,13.82
2023-09-15T02:22:26.268Z,13.65
2023-09-15T02:25:28.282Z,14.02
2023-09-15T02:28:30.515Z,13.80
2023-09-15T02:31:32.770Z,13.38
2023-09-15T02:34:34.887Z,13.65
2023-09-15T02:37:36.894Z,14.13
2023-09-15T02:40:39.703Z,15.32
2023-09-15T02:43:41.703Z,17.20
2023-09-15T02:46:44.223Z,13.68
2023-09-15T02:49:46.737Z,13.13
2023-09-15T02:52:48.978Z,12.48
2023-09-15T02:56:02.805Z,13.18
2023-09-15T02:59:08.659Z,12.68
2023-09-15T03:02:13.854Z,14.73
2023-09-15T03:05:21.434Z,13.43
2023-09-15T03:08:23.477Z,14.10
2023-09-15T03:11:26.242Z,17.25
2023-09-15T03:14:34.747Z,18.27
2023-09-15T03:17:40.795Z,13.45
2023-09-15T03:20:42.974Z,14.10
2023-09-15T03:23:45.272Z,14.32
2023-09-15T03:26:48.215Z,13.93
2023-09-15T03:29:50.426Z,14.55
2023-09-15T03:32:52.561Z,13.88
2023-09-15T03:35:54.646Z,15.57
2023-09-15T03:38:57.889Z,15.63
2023-09-15T03:42:00.623Z,15.98
2023-09-15T03:45:03.039Z,15.93
2023-09-15T03:48:05.574Z,15.40
2023-09-15T03:51:07.876Z,15.15
2023-09-15T03:54:10.339Z,15.50
2023-09-15T03:57:12.477Z,14.80
2023-09-15T04:00:18.758Z,14.98
2023-09-15T04:03:22.394Z,15.15
2023-09-15T04:06:24.463Z,16.35
2023-09-15T04:09:26.540Z,15.48
2023-09-15T04:12:29.171Z,15.13
2023-09-15T04:15:31.168Z,16.02
2023-09-15T04:18:33.264Z,15.00
2023-09-15T04:21:36.622Z,15.38
2023-09-15T04:24:38.834Z,15.00
2023-09-15T04:27:40.856Z,15.57
2023-09-15T04:30:43.397Z,15.15
2023-09-15T04:33:49.639Z,15.55
2023-09-15T04:36:51.839Z,14.85
2023-09-15T04:39:55.521Z,14.43
2023-09-15T04:42:58.050Z,15.18
2023-09-15T04:46:03.174Z,14.60
2023-09-15T04:49:05.543Z,14.30
2023-09-15T04:52:07.915Z,14.90
2023-09-15T04:55:10.343Z,14.00
2023-09-15T04:58:12.892Z,13.88
2023-09-15T05:01:17.928Z,14.95
2023-09-15T05:04:21.656Z,16.35
2023-09-15T05:07:25.614Z,14.35
2023-09-15T05:10:27.975Z,14.70
2023-09-15T05:13:31.384Z,13.77
2023-09-15T05:16:34.435Z,15.07
2023-09-15T05:19:36.681Z,14.23
2023-09-15T05:22:38.868Z,13.38
2023-09-15T05:25:41.593Z,14.38
2023-09-15T05:28:43.930Z,14.00
2023-09-15T05:31:46.209Z,14.77
2023-09-15T05:34:48.522Z,12.98
2023-09-15T05:37:51.849Z,15.10
2023-09-15T05:40:53.976Z,14.23
2023-09-15T05:43:56.066Z,13.35
2023-09-15T05:46:58.117Z,15.80
2023-09-15T05:50:05.583Z,13.52
2023-09-15T05:53:07.910Z,15.38
2023-09-15T05:56:09.828Z,16.02
2023-09-15T05:59:11.891Z,14.90
2023-09-15T06:02:17.620Z,16.02
2023-09-15T06:05:23.265Z,15.43
2023-09-15T06:08:25.227Z,15.88
2023-09-15T06:11:27.241Z,15.60
2023-09-15T06:14:29.268Z,15.73
2023-09-15T06:17:31.276Z,15.88
2023-09-15T06:20:34.710Z,15.38
2023-09-15T06:23:36.805Z,14.35
2023-09-15T06:26:39.441Z,13.85
2023-09-15T06:29:41.478Z,14.68
2023-09-15T06:32:43.596Z,17.13
2023-09-15T06:35:45.908Z,14.43
2023-09-15T06:38:48.333Z,14.93
2023-09-15T06:41:53.450Z,15.70
2023-09-15T06:44:58.521Z,14.65
2023-09-15T06:48:00.928Z,14.68
2023-09-15T06:51:02.918Z,13.57
2023-09-15T06:54:04.962Z,17.50
2023-09-15T06:57:07.011Z,14.57
2023-09-15T07:00:10.468Z,12.63
2023-09-15T07:03:12.486Z,12.48
2023-09-15T07:06:15.010Z,12.25
2023-09-15T07:09:17.003Z,12.98
2023-09-15T07:12:19.403Z,13.05
2023-09-15T07:15:22.643Z,12.30
2023-09-15T07:18:25.190Z,11.07
2023-09-15T07:21:27.195Z,11.27
2023-09-15T07:24:29.267Z,10.02
2023-09-15T07:27:31.310Z,14.05
2023-09-15T07:30:33.360Z,11.35
2023-09-15T07:33:35.510Z,11.07
2023-09-15T07:36:37.549Z,12.77
2023-09-15T07:39:39.570Z,11.68
2023-09-15T07:42:41.842Z,10.13
2023-09-15T07:45:45.003Z,10.20
2023-09-15T07:48:48.151Z,10.35
2023-09-15T07:51:51.749Z,13.18
2023-09-15T07:54:53.985Z,8.68
2023-09-15T07:57:56.318Z,9.18
2023-09-15T08:00:58.654Z,10.30
2023-09-15T08:04:00.981Z,9.82
2023-09-15T08:07:04.351Z,12.40
2023-09-15T08:10:06.707Z,9.80
2023-09-15T08:13:08.791Z,11.05
2023-09-15T08:16:11.087Z,10.30
2023-09-15T08:19:13.940Z,9.23
2023-09-15T08:22:17.356Z,10.20
2023-09-15T08:25:19.930Z,9.15
2023-09-15T08:28:23.643Z,8.30
2023-09-15T08:31:28.089Z,9.35
2023-09-15T08:37:33.045Z,8.60
2023-09-15T08:40:39.074Z,10.73
2023-09-15T08:43:41.618Z,9.40
2023-09-15T08:46:44.650Z,9.25
2023-09-15T08:49:46.834Z,10.13
2023-09-15T08:52:50.917Z,10.65
2023-09-15T08:55:53.212Z,11.73
2023-09-15T08:58:55.306Z,8.75
2023-09-15T09:01:57.982Z,8.85
2023-09-15T09:05:00.055Z,8.38
2023-09-15T09:08:02.621Z,8.38
2023-09-15T09:11:04.713Z,7.82
2023-09-15T09:14:12.526Z,8.57
2023-09-15T09:17:15.232Z,8.63
2023-09-15T09:20:25.509Z,8.13
2023-09-15T09:23:28.742Z,7.30
2023-09-15T09:26:30.901Z,8.02
2023-09-15T09:29:33.576Z,7.93
2023-09-15T09:32:38.996Z,7.82
2023-09-15T09:35:41.173Z,7.68
2023-09-15T09:38:44.350Z,7.35
2023-09-15T09:41:47.592Z,7.75
2023-09-15T09:44:49.665Z,7.35
2023-09-15T09:47:51.791Z,7.30
2023-09-15T09:50:56.082Z,9.35
2023-09-15T09:53:58.167Z,7.22
2023-09-15T09:57:01.970Z,6.68
2023-09-15T10:00:05.384Z,7.28
2023-09-15T10:03:08.557Z,7.63
2023-09-15T10:06:11.299Z,6.80
2023-09-15T10:09:15.336Z,7.25
2023-09-15T10:12:17.695Z,7.10
2023-09-15T10:15:19.803Z,8.13
2023-09-15T10:18:22.479Z,8.02
2023-09-15T10:21:26.099Z,8.02
2023-09-15T10:24:28.477Z,7.00
2023-09-15T10:27:30.779Z,7.22
2023-09-15T10:30:37.864Z,6.70
2023-09-15T10:33:41.612Z,7.25
2023-09-15T10:36:45.936Z,6.13
2023-09-15T10:39:48.234Z,6.22
2023-09-15T10:42:51.507Z,6.40
2023-09-15T10:45:58.638Z,5.78
2023-09-15T10:49:00.698Z,7.22
2023-09-15T10:52:04.231Z,5.32
2023-09-15T10:55:07.190Z,7.18
2023-09-15T10:58:10.403Z,6.40
2023-09-15T11:01:12.926Z,5.70
2023-09-15T11:04:19.302Z,5.68
2023-09-15T11:07:21.879Z,5.45
2023-09-15T11:10:33.315Z,6.47
2023-09-15T11:13:35.495Z,5.57
2023-09-15T11:16:37.560Z,5.50
2023-09-15T11:19:39.825Z,5.90
2023-09-15T11:22:42.352Z,5.50
2023-09-15T11:25:45.451Z,4.97
2023-09-15T11:28:47.765Z,5.53
2023-09-15T11:31:49.892Z,5.40
2023-09-15T11:34:52.806Z,5.40
2023-09-15T11:37:54.935Z,5.18
2023-09-15T11:40:56.918Z,4.32
2023-09-15T11:43:59.252Z,4.72
2023-09-15T11:47:02.266Z,4.60
2023-09-15T11:50:06.889Z,4.63
2023-09-15T11:56:11.377Z,6.03
2023-09-15T11:59:15.240Z,4.47
2023-09-15T12:02:22.046Z,4.30
2023-09-15T12:05:24.551Z,4.40
2023-09-15T12:08:26.626Z,3.78
2023-09-15T12:11:28.889Z,5.05
2023-09-15T12:14:30.975Z,5.03
2023-09-15T12:17:33.060Z,4.03
2023-09-15T12:20:37.161Z,5.13
2023-09-15T12:23:40.539Z,4.72
2023-09-15T12:26:44.571Z,6.47
2023-09-15T12:29:46.708Z,4.72
2023-09-15T12:32:49.597Z,4.88
2023-09-15T12:35:52.121Z,4.95
2023-09-15T12:38:54.129Z,4.70
2023-09-15T12:45:11.724Z,4.25
2023-09-15T12:48:13.886Z,5.32
2023-09-15T12:51:15.939Z,5.93
2023-09-15T12:54:17.978Z,6.55
2023-09-15T12:57:20.095Z,5.60
2023-09-15T13:00:22.487Z,5.82
2023-09-15T13:03:25.384Z,6.57
2023-09-15T13:06:27.755Z,5.57
2023-09-15T13:09:32.179Z,5.82
2023-09-15T13:12:34.415Z,6.13
2023-09-15T13:15:36.465Z,6.30
2023-09-15T13:18:38.529Z,7.07
2023-09-15T13:21:40.679Z,6.50
2023-09-15T13:24:42.944Z,7.50
2023-09-15T13:27:45.105Z,6.60
2023-09-15T13:30:47.291Z,5.72
2023-09-15T13:33:49.711Z,5.63
2023-09-15T13:36:54.264Z,8.52
2023-09-15T13:39:56.273Z,5.75
2023-09-15T13:42:58.705Z,6.65
2023-09-15T13:46:00.990Z,6.60
2023-09-15T13:49:03.722Z,6.82
2023-09-15T13:52:05.872Z,8.50
2023-09-15T13:55:09.069Z,7.15
2023-09-15T13:58:11.244Z,5.78
2023-09-15T14:01:13.234Z,6.25
2023-09-15T14:04:17.791Z,7.10
2023-09-15T14:07:19.828Z,6.00
2023-09-15T14:10:21.823Z,5.70
2023-09-15T14:13:23.838Z,6.60
2023-09-15T14:16:26.404Z,5.75
2023-09-15T14:19:28.476Z,6.47
2023-09-15T14:22:31.033Z,8.02
2023-09-15T14:25:33.719Z,6.35
2023-09-15T14:28:35.930Z,5.60
2023-09-15T14:31:37.924Z,7.07
2023-09-15T14:34:42.750Z,8.43
2023-09-15T14:37:44.884Z,7.25
2023-09-15T14:40:47.992Z,6.45
2023-09-15T14:43:50.059Z,7.63
2023-09-15T14:46:52.075Z,6.88
2023-09-15T14:49:54.076Z,5.95
2023-09-15T14:52:56.295Z,6.07
2023-09-15T14:55:58.303Z,5.90
2023-09-15T14:59:00.593Z,6.38
2023-09-15T15:02:03.764Z,6.53
2023-09-15T15:05:06.790Z,6.88
2023-09-15T15:08:08.756Z,5.45
2023-09-15T15:11:10.737Z,6.45
2023-09-15T15:14:13.244Z,7.20
2023-09-15T15:17:17.392Z,6.53
2023-09-15T15:23:21.485Z,6.93
2023-09-15T15:26:23.526Z,6.95
2023-09-15T15:29:25.520Z,7.40
2023-09-15T15:32:27.864Z,8.40
2023-09-15T15:35:33.316Z,7.70
2023-09-15T15:38:36.501Z,7.70
2023-09-15T15:41:38.523Z,8.15
2023-09-15T15:44:40.601Z,7.88
2023-09-15T15:47:42.695Z,8.40
2023-09-15T15:50:44.738Z,8.90
2023-09-15T15:53:46.787Z,8.05
2023-09-15T15:56:48.916Z,7.82
2023-09-15T15:59:51.101Z,7.95
2023-09-15T16:02:53.101Z,9.82
2023-09-15T16:05:56.397Z,8.38
2023-09-15T16:08:58.951Z,8.02
2023-09-15T16:12:00.897Z,7.82
2023-09-15T16:15:04.287Z,8.27
2023-09-15T16:18:24.060Z,7.30
2023-09-15T16:21:35.116Z,7.13
2023-09-15T16:24:37.306Z,7.20
2023-09-15T16:27:40.335Z,7.45
2023-09-15T16:30:43.941Z,7.50
2023-09-15T16:33:47.868Z,9.73
2023-09-15T16:36:50.097Z,7.70
2023-09-15T16:39:52.615Z,7.60
2023-09-15T16:42:55.656Z,8.70
2023-09-15T16:45:59.143Z,7.90
2023-09-15T16:49:01.205Z,7.63
2023-09-15T16:52:03.594Z,8.38
2023-09-15T16:55:06.434Z,8.05
2023-09-15T16:58:08.387Z,7.40
2023-09-15T17:01:10.485Z,9.45
2023-09-15T17:04:12.596Z,9.50
2023-09-15T17:07:14.636Z,9.38
2023-09-15T17:10:16.660Z,7.63
2023-09-15T17:13:18.784Z,6.70
2023-09-15T17:16:21.498Z,7.30
2023-09-15T17:19:25.356Z,7.03
2023-09-15T17:22:27.478Z,6.72
2023-09-15T17:25:29.448Z,6.38
2023-09-15T17:28:31.546Z,6.05
2023-09-15T17:31:33.594Z,6.30
2023-09-15T17:34:37.636Z,6.63
2023-09-15T17:37:40.421Z,6.15
2023-09-15T17:40:43.163Z,6.05
2023-09-15T17:43:45.247Z,6.65
2023-09-15T17:46:48.041Z,7.10
2023-09-15T17:50:07.156Z,5.72
2023-09-15T17:53:09.934Z,5.75
2023-09-15T17:56:11.932Z,6.38
2023-09-15T17:59:14.062Z,5.70
2023-09-15T18:02:16.079Z,5.75
2023-09-15T18:05:19.837Z,6.55
2023-09-15T18:08:21.871Z,5.88
2023-09-15T18:11:23.916Z,6.13
2023-09-15T18:14:26.054Z,5.72
2023-09-15T18:17:28.036Z,7.45
2023-09-15T18:20:29.978Z,6.03
2023-09-15T18:23:32.049Z,7.13
2023-09-15T18:26:34.087Z,6.72
2023-09-15T18:29:36.933Z,6.28
2023-09-15T18:32:39.092Z,6.90
2023-09-15T18:35:41.179Z,9.50
2023-09-15T18:38:43.190Z,7.10
2023-09-15T18:41:45.110Z,6.15
2023-09-15T18:44:47.680Z,7.43
2023-09-15T18:47:50.535Z,6.50
2023-09-15T18:50:52.672Z,6.47
2023-09-15T18:53:54.768Z,6.90
2023-09-15T18:56:56.787Z,7.10
2023-09-15T18:59:58.846Z,6.47
2023-09-15T19:03:01.484Z,8.18
2023-09-15T19:06:04.894Z,7.55
2023-09-15T19:09:07.910Z,7.53
2023-09-15T19:12:09.964Z,7.88
2023-09-15T19:15:12.113Z,7.97
2023-09-15T19:18:14.292Z,7.28
2023-09-15T19:21:17.052Z,8.60
2023-09-15T19:24:19.155Z,7.95
2023-09-15T19:27:21.403Z,7.22
2023-09-15T19:30:23.500Z,7.85
2023-09-15T19:33:25.959Z,7.97
2023-09-15T19:36:28.162Z,7.60
2023-09-15T19:39:30.191Z,7.72
2023-09-15T19:42:32.475Z,9.05
2023-09-15T19:45:34.581Z,8.48
2023-09-15T19:48:37.691Z,8.40
2023-09-15T19:51:39.938Z,8.18
2023-09-15T19:54:41.911Z,8.25
2023-09-15T19:57:51.370Z,8.73
2023-09-15T20:00:53.856Z,8.73
2023-09-15T20:03:55.951Z,7.80
2023-09-15T20:06:57.973Z,8.95
2023-09-15T20:10:00.233Z,8.20
2023-09-15T20:13:02.270Z,8.70
2023-09-15T20:16:14.652Z,7.80
2023-09-15T20:19:16.805Z,8.57
2023-09-15T20:22:19.139Z,11.13
2023-09-15T20:25:22.538Z,11.70
2023-09-15T20:28:25.598Z,9.65
2023-09-15T20:31:27.906Z,7.47
2023-09-15T20:34:29.974Z,8.82
2023-09-15T20:37:32.732Z,9.23
2023-09-15T20:40:38.491Z,8.57
2023-09-15T20:43:40.522Z,8.52
2023-09-15T20:46:43.732Z,8.88
2023-09-15T20:49:46.061Z,9.32
2023-09-15T20:52:48.485Z,8.52
2023-09-15T20:55:50.517Z,9.82
2023-09-15T20:58:52.556Z,9.73
2023-09-15T21:01:58.187Z,9.38
2023-09-15T21:05:00.241Z,8.38
2023-09-15T21:08:02.332Z,10.25
2023-09-15T21:11:05.413Z,8.85
2023-09-15T21:14:07.670Z,9.82
2023-09-15T21:17:09.735Z,8.77
2023-09-15T21:20:12.203Z,9.43
2023-09-15T21:23:15.580Z,9.38
2023-09-15T21:26:17.580Z,10.18
2023-09-15T21:29:19.612Z,8.85
2023-09-15T21:32:21.679Z,9.57
2023-09-15T21:35:23.716Z,9.75
2023-09-15T21:38:25.698Z,8.55
2023-09-15T21:41:27.908Z,9.48
2023-09-15T21:44:30.131Z,10.23
2023-09-15T21:47:32.128Z,9.30
2023-09-15T21:50:35.431Z,9.60
2023-09-15T21:53:37.757Z,9.38
2023-09-15T21:56:39.825Z,9.00
2023-09-15T21:59:42.203Z,9.63
2023-09-15T22:02:44.234Z,9.35
2023-09-15T22:05:46.155Z,9.25
2023-09-15T22:08:50.400Z,8.77
2023-09-15T22:11:54.478Z,9.25
2023-09-15T22:14:56.604Z,11.82
2023-09-15T22:18:01.200Z,9.55
2023-09-15T22:24:06.507Z,9.02
2023-09-15T22:27:08.717Z,9.95
2023-09-15T22:30:11.121Z,9.75
2023-09-15T22:33:13.183Z,8.75
2023-09-15T22:36:15.231Z,9.40
2023-09-15T22:39:17.555Z,10.45
2023-09-15T22:42:19.589Z,9.43
2023-09-15T22:45:24.553Z,9.82
2023-09-15T22:48:28.276Z,9.02
2023-09-15T22:51:33.178Z,10.02
2023-09-15T22:54:36.078Z,10.07
2023-09-15T22:57:42.503Z,9.27
2023-09-15T23:00:44.807Z,8.68
2023-09-15T23:03:46.983Z,9.65
2023-09-15T23:06:49.129Z,8.95
2023-09-15T23:09:52.664Z,9.93
2023-09-15T23:12:54.828Z,8.90
2023-09-15T23:15:58.766Z,9.57
2023-09-15T23:19:01.108Z,8.25
2023-09-15T23:22:03.219Z,10.27
2023-09-15T23:25:05.986Z,8.65
2023-09-15T23:28:08.466Z,8.88
2023-09-15T23:31:16.729Z,8.45
2023-09-15T23:34:18.803Z,9.10
2023-09-15T23:37:21.289Z,8.63
2023-09-15T23:40:23.385Z,8.55
2023-09-15T23:43:25.417Z,9.05
2023-09-15T23:46:27.945Z,8.40
2023-09-15T23:49:30.526Z,8.05
2023-09-15T23:52:32.519Z,8.68
2023-09-15T23:55:36.622Z,8.15
2023-09-15T23:58:38.913Z,9.13
